sensor_id;sensor_type;location;lat;lon;timestamp;P1;durP1;ratioP1;P2;durP2;ratioP2
11425;SDS011;5769;47.998;7.788;2022-11-15T00:01:26;274.43;;;43.90;;
11425;SDS011;5769;47.998;7.788;2022-11-15T00:03:53;274.87;;;44.07;;
11425;SDS011;5769;47.998;7.788;2022-11-15T00:06:20;272.57;;;43.80;;
11425;SDS011;5769;47.998;7.788;2022-11-15T00:08:46;273.63;;;43.90;;
11425;SDS011;5769;47.998;7.788;2022-11-15T00:11:14;273.63;;;44.07;;
11425;SDS011;5769;47.998;7.788;2022-11-15T00:13:41;271.20;;;43.53;;
11425;SDS011;5769;47.998;7.788;2022-11-15T00:16:08;275.03;;;44.07;;
11425;SDS011;5769;47.998;7.788;2022-11-15T00:18:36;273.43;;;43.80;;
11425;SDS011;5769;47.998;7.788;2022-11-15T00:21:04;274.57;;;43.97;;
11425;SDS011;5769;47.998;7.788;2022-11-15T00:23:32;274.67;;;44.03;;
11425;SDS011;5769;47.998;7.788;2022-11-15T00:26:00;275.57;;;43.90;;
11425;SDS011;5769;47.998;7.788;2022-11-15T00:28:28;276.07;;;43.87;;
11425;SDS011;5769;47.998;7.788;2022-11-15T00:30:59;275.87;;;43.80;;
11425;SDS011;5769;47.998;7.788;2022-11-15T00:33:26;273.60;;;43.80;;
11425;SDS011;5769;47.998;7.788;2022-11-15T00:35:53;274.23;;;43.60;;
11425;SDS011;5769;47.998;7.788;2022-11-15T00:38:25;278.50;;;44.10;;
11425;SDS011;5769;47.998;7.788;2022-11-15T00:40:55;278.20;;;44.17;;
11425;SDS011;5769;47.998;7.788;2022-11-15T00:43:22;276.83;;;44.20;;
11425;SDS011;5769;47.998;7.788;2022-11-15T00:45:50;277.47;;;44.20;;
11425;SDS011;5769;47.998;7.788;2022-11-15T00:48:17;277.00;;;44.00;;
11425;SDS011;5769;47.998;7.788;2022-11-15T00:50:44;277.67;;;44.17;;
11425;SDS011;5769;47.998;7.788;2022-11-15T00:53:11;274.90;;;43.80;;
11425;SDS011;5769;47.998;7.788;2022-11-15T00:55:38;276.60;;;43.97;;
11425;SDS011;5769;47.998;7.788;2022-11-15T00:58:05;277.40;;;44.03;;
11425;SDS011;5769;47.998;7.788;2022-11-15T01:00:31;276.53;;;44.00;;
11425;SDS011;5769;47.998;7.788;2022-11-15T01:03:00;278.07;;;44.07;;
11425;SDS011;5769;47.998;7.788;2022-11-15T01:05:27;288.30;;;44.13;;
11425;SDS011;5769;47.998;7.788;2022-11-15T01:07:55;292.03;;;44.07;;
11425;SDS011;5769;47.998;7.788;2022-11-15T01:10:22;288.60;;;43.60;;
11425;SDS011;5769;47.998;7.788;2022-11-15T01:12:50;291.00;;;44.20;;
11425;SDS011;5769;47.998;7.788;2022-11-15T01:15:17;290.87;;;43.83;;
11425;SDS011;5769;47.998;7.788;2022-11-15T01:17:44;292.57;;;44.17;;
11425;SDS011;5769;47.998;7.788;2022-11-15T01:20:13;294.57;;;44.03;;
11425;SDS011;5769;47.998;7.788;2022-11-15T01:22:40;295.23;;;44.30;;
11425;SDS011;5769;47.998;7.788;2022-11-15T01:25:06;294.40;;;43.97;;
11425;SDS011;5769;47.998;7.788;2022-11-15T01:27:33;290.47;;;44.13;;
11425;SDS011;5769;47.998;7.788;2022-11-15T01:30:00;291.57;;;43.83;;
11425;SDS011;5769;47.998;7.788;2022-11-15T01:32:35;295.17;;;44.27;;
11425;SDS011;5769;47.998;7.788;2022-11-15T01:35:02;293.90;;;43.73;;
11425;SDS011;5769;47.998;7.788;2022-11-15T01:37:31;291.97;;;44.07;;
11425;SDS011;5769;47.998;7.788;2022-11-15T01:39:57;295.53;;;44.23;;
11425;SDS011;5769;47.998;7.788;2022-11-15T01:42:24;292.77;;;43.97;;
11425;SDS011;5769;47.998;7.788;2022-11-15T01:44:51;291.93;;;44.00;;
11425;SDS011;5769;47.998;7.788;2022-11-15T01:47:20;290.83;;;44.07;;
11425;SDS011;5769;47.998;7.788;2022-11-15T01:49:52;285.83;;;43.90;;
11425;SDS011;5769;47.998;7.788;2022-11-15T01:52:24;270.83;;;43.10;;
11425;SDS011;5769;47.998;7.788;2022-11-15T01:54:55;271.70;;;43.67;;
11425;SDS011;5769;47.998;7.788;2022-11-15T01:57:26;271.73;;;43.70;;
11425;SDS011;5769;47.998;7.788;2022-11-15T01:59:54;271.70;;;43.77;;
11425;SDS011;5769;47.998;7.788;2022-11-15T02:02:21;272.17;;;43.70;;
11425;SDS011;5769;47.998;7.788;2022-11-15T02:04:48;271.07;;;43.20;;
11425;SDS011;5769;47.998;7.788;2022-11-15T02:07:15;272.13;;;43.77;;
11425;SDS011;5769;47.998;7.788;2022-11-15T02:09:43;270.33;;;43.40;;
11425;SDS011;5769;47.998;7.788;2022-11-15T02:12:13;271.17;;;43.70;;
11425;SDS011;5769;47.998;7.788;2022-11-15T02:14:42;270.47;;;43.57;;
11425;SDS011;5769;47.998;7.788;2022-11-15T02:17:18;271.77;;;43.57;;
11425;SDS011;5769;47.998;7.788;2022-11-15T02:22:57;270.00;;;43.60;;
11425;SDS011;5769;47.998;7.788;2022-11-15T02:25:38;269.37;;;43.40;;
11425;SDS011;5769;47.998;7.788;2022-11-15T02:28:23;268.80;;;43.53;;
11425;SDS011;5769;47.998;7.788;2022-11-15T02:31:05;267.87;;;43.27;;
11425;SDS011;5769;47.998;7.788;2022-11-15T02:33:39;269.07;;;43.37;;
11425;SDS011;5769;47.998;7.788;2022-11-15T02:36:11;271.17;;;43.73;;
11425;SDS011;5769;47.998;7.788;2022-11-15T02:38:46;268.70;;;43.50;;
11425;SDS011;5769;47.998;7.788;2022-11-15T02:41:20;268.57;;;43.33;;
11425;SDS011;5769;47.998;7.788;2022-11-15T02:43:53;271.33;;;43.50;;
11425;SDS011;5769;47.998;7.788;2022-11-15T02:46:29;269.77;;;43.20;;
11425;SDS011;5769;47.998;7.788;2022-11-15T02:49:18;269.53;;;43.47;;
11425;SDS011;5769;47.998;7.788;2022-11-15T02:51:46;269.03;;;43.33;;
11425;SDS011;5769;47.998;7.788;2022-11-15T02:54:15;267.43;;;43.10;;
11425;SDS011;5769;47.998;7.788;2022-11-15T02:56:47;270.03;;;43.10;;
11425;SDS011;5769;47.998;7.788;2022-11-15T02:59:18;266.73;;;43.27;;
11425;SDS011;5769;47.998;7.788;2022-11-15T03:02:15;266.13;;;43.10;;
11425;SDS011;5769;47.998;7.788;2022-11-15T03:04:52;268.13;;;43.37;;
11425;SDS011;5769;47.998;7.788;2022-11-15T03:07:23;269.63;;;43.50;;
11425;SDS011;5769;47.998;7.788;2022-11-15T03:09:54;269.00;;;43.50;;
11425;SDS011;5769;47.998;7.788;2022-11-15T03:12:28;266.63;;;43.20;;
11425;SDS011;5769;47.998;7.788;2022-11-15T03:15:07;268.97;;;43.30;;
11425;SDS011;5769;47.998;7.788;2022-11-15T03:17:45;284.47;;;44.23;;
11425;SDS011;5769;47.998;7.788;2022-11-15T03:20:17;281.37;;;44.23;;
11425;SDS011;5769;47.998;7.788;2022-11-15T03:22:45;281.93;;;44.20;;
11425;SDS011;5769;47.998;7.788;2022-11-15T03:25:16;283.67;;;44.40;;
11425;SDS011;5769;47.998;7.788;2022-11-15T03:27:48;281.57;;;44.07;;
11425;SDS011;5769;47.998;7.788;2022-11-15T03:30:18;280.20;;;44.03;;
11425;SDS011;5769;47.998;7.788;2022-11-15T03:32:48;279.90;;;44.03;;
11425;SDS011;5769;47.998;7.788;2022-11-15T03:35:18;281.80;;;44.20;;
11425;SDS011;5769;47.998;7.788;2022-11-15T03:37:48;279.00;;;43.97;;
11425;SDS011;5769;47.998;7.788;2022-11-15T03:40:22;279.80;;;44.10;;
11425;SDS011;5769;47.998;7.788;2022-11-15T03:42:54;279.67;;;44.10;;
11425;SDS011;5769;47.998;7.788;2022-11-15T03:45:28;277.27;;;43.80;;
11425;SDS011;5769;47.998;7.788;2022-11-15T03:48:01;275.57;;;43.97;;
11425;SDS011;5769;47.998;7.788;2022-11-15T03:50:31;277.80;;;44.17;;
11425;SDS011;5769;47.998;7.788;2022-11-15T03:52:58;282.70;;;44.10;;
11425;SDS011;5769;47.998;7.788;2022-11-15T03:55:25;286.50;;;44.20;;
11425;SDS011;5769;47.998;7.788;2022-11-15T03:57:52;279.00;;;43.70;;
11425;SDS011;5769;47.998;7.788;2022-11-15T04:00:21;281.93;;;44.40;;
11425;SDS011;5769;47.998;7.788;2022-11-15T04:02:48;282.90;;;44.50;;
11425;SDS011;5769;47.998;7.788;2022-11-15T04:05:16;282.77;;;44.30;;
11425;SDS011;5769;47.998;7.788;2022-11-15T04:07:43;284.83;;;44.33;;
11425;SDS011;5769;47.998;7.788;2022-11-15T04:10:10;283.47;;;44.20;;
11425;SDS011;5769;47.998;7.788;2022-11-15T04:12:39;281.40;;;44.13;;
11425;SDS011;5769;47.998;7.788;2022-11-15T04:15:09;280.60;;;43.90;;
11425;SDS011;5769;47.998;7.788;2022-11-15T04:17:38;283.67;;;44.37;;
11425;SDS011;5769;47.998;7.788;2022-11-15T04:20:07;282.10;;;44.30;;
11425;SDS011;5769;47.998;7.788;2022-11-15T04:22:55;282.33;;;44.17;;
11425;SDS011;5769;47.998;7.788;2022-11-15T04:25:41;279.57;;;43.93;;
11425;SDS011;5769;47.998;7.788;2022-11-15T04:28:08;279.00;;;44.10;;
11425;SDS011;5769;47.998;7.788;2022-11-15T04:30:35;278.00;;;43.93;;
11425;SDS011;5769;47.998;7.788;2022-11-15T04:33:01;280.77;;;44.13;;
11425;SDS011;5769;47.998;7.788;2022-11-15T04:35:28;281.03;;;44.00;;
11425;SDS011;5769;47.998;7.788;2022-11-15T04:37:57;282.20;;;44.20;;
11425;SDS011;5769;47.998;7.788;2022-11-15T04:40:24;280.43;;;44.13;;
11425;SDS011;5769;47.998;7.788;2022-11-15T04:42:51;280.67;;;44.23;;
11425;SDS011;5769;47.998;7.788;2022-11-15T04:45:17;280.63;;;44.20;;
11425;SDS011;5769;47.998;7.788;2022-11-15T04:47:44;279.40;;;44.00;;
11425;SDS011;5769;47.998;7.788;2022-11-15T04:50:12;278.60;;;43.80;;
11425;SDS011;5769;47.998;7.788;2022-11-15T04:52:39;278.93;;;44.03;;
11425;SDS011;5769;47.998;7.788;2022-11-15T04:55:08;280.87;;;44.23;;
11425;SDS011;5769;47.998;7.788;2022-11-15T04:57:35;279.47;;;44.17;;
11425;SDS011;5769;47.998;7.788;2022-11-15T05:00:03;277.93;;;43.97;;
11425;SDS011;5769;47.998;7.788;2022-11-15T05:02:31;279.17;;;44.13;;
11425;SDS011;5769;47.998;7.788;2022-11-15T05:05:12;278.03;;;44.07;;
11425;SDS011;5769;47.998;7.788;2022-11-15T05:07:39;279.73;;;44.17;;
11425;SDS011;5769;47.998;7.788;2022-11-15T05:10:06;280.90;;;44.17;;
11425;SDS011;5769;47.998;7.788;2022-11-15T05:12:34;281.47;;;44.07;;
11425;SDS011;5769;47.998;7.788;2022-11-15T05:15:01;278.13;;;43.63;;
11425;SDS011;5769;47.998;7.788;2022-11-15T05:17:28;279.23;;;44.20;;
11425;SDS011;5769;47.998;7.788;2022-11-15T05:19:55;278.23;;;44.00;;
11425;SDS011;5769;47.998;7.788;2022-11-15T05:22:22;277.87;;;43.93;;
11425;SDS011;5769;47.998;7.788;2022-11-15T05:24:49;278.90;;;43.93;;
11425;SDS011;5769;47.998;7.788;2022-11-15T05:27:17;278.93;;;44.00;;
11425;SDS011;5769;47.998;7.788;2022-11-15T05:29:43;277.67;;;43.90;;
11425;SDS011;5769;47.998;7.788;2022-11-15T05:32:10;282.70;;;43.90;;
11425;SDS011;5769;47.998;7.788;2022-11-15T05:34:38;281.50;;;44.20;;
11425;SDS011;5769;47.998;7.788;2022-11-15T05:37:05;280.77;;;44.10;;
11425;SDS011;5769;47.998;7.788;2022-11-15T05:39:32;283.77;;;44.30;;
11425;SDS011;5769;47.998;7.788;2022-11-15T05:41:59;281.83;;;44.50;;
11425;SDS011;5769;47.998;7.788;2022-11-15T05:44:30;282.40;;;44.23;;
11425;SDS011;5769;47.998;7.788;2022-11-15T05:46:57;283.43;;;44.07;;
11425;SDS011;5769;47.998;7.788;2022-11-15T05:49:25;284.37;;;44.30;;
11425;SDS011;5769;47.998;7.788;2022-11-15T05:51:56;283.47;;;44.10;;
11425;SDS011;5769;47.998;7.788;2022-11-15T05:54:23;283.23;;;43.83;;
11425;SDS011;5769;47.998;7.788;2022-11-15T05:56:51;280.83;;;44.10;;
11425;SDS011;5769;47.998;7.788;2022-11-15T05:59:18;282.90;;;44.20;;
11425;SDS011;5769;47.998;7.788;2022-11-15T06:01:47;281.60;;;44.10;;
11425;SDS011;5769;47.998;7.788;2022-11-15T06:04:13;282.50;;;44.23;;
11425;SDS011;5769;47.998;7.788;2022-11-15T06:06:40;282.13;;;44.13;;
11425;SDS011;5769;47.998;7.788;2022-11-15T06:09:07;280.70;;;43.87;;
11425;SDS011;5769;47.998;7.788;2022-11-15T06:11:33;280.53;;;44.10;;
11425;SDS011;5769;47.998;7.788;2022-11-15T06:14:00;280.37;;;44.10;;
11425;SDS011;5769;47.998;7.788;2022-11-15T06:16:27;280.37;;;44.17;;
11425;SDS011;5769;47.998;7.788;2022-11-15T06:18:55;279.13;;;44.03;;
11425;SDS011;5769;47.998;7.788;2022-11-15T06:21:22;277.50;;;44.07;;
11425;SDS011;5769;47.998;7.788;2022-11-15T06:23:49;278.23;;;44.07;;
11425;SDS011;5769;47.998;7.788;2022-11-15T06:26:15;277.43;;;44.13;;
11425;SDS011;5769;47.998;7.788;2022-11-15T06:28:42;278.33;;;44.20;;
11425;SDS011;5769;47.998;7.788;2022-11-15T06:31:09;278.77;;;44.07;;
11425;SDS011;5769;47.998;7.788;2022-11-15T06:33:37;278.43;;;44.07;;
11425;SDS011;5769;47.998;7.788;2022-11-15T06:36:06;280.13;;;44.17;;
11425;SDS011;5769;47.998;7.788;2022-11-15T06:38:35;275.77;;;43.73;;
11425;SDS011;5769;47.998;7.788;2022-11-15T06:41:03;275.77;;;43.87;;
11425;SDS011;5769;47.998;7.788;2022-11-15T06:43:31;276.90;;;44.00;;
11425;SDS011;5769;47.998;7.788;2022-11-15T06:45:58;278.47;;;44.03;;
11425;SDS011;5769;47.998;7.788;2022-11-15T06:48:25;279.60;;;44.10;;
11425;SDS011;5769;47.998;7.788;2022-11-15T06:50:52;281.90;;;44.30;;
11425;SDS011;5769;47.998;7.788;2022-11-15T06:53:20;280.50;;;44.27;;
11425;SDS011;5769;47.998;7.788;2022-11-15T06:55:47;280.77;;;43.97;;
11425;SDS011;5769;47.998;7.788;2022-11-15T06:58:13;280.17;;;44.17;;
11425;SDS011;5769;47.998;7.788;2022-11-15T07:00:40;281.27;;;44.30;;
11425;SDS011;5769;47.998;7.788;2022-11-15T07:03:08;279.60;;;44.03;;
11425;SDS011;5769;47.998;7.788;2022-11-15T07:05:35;278.07;;;43.90;;
11425;SDS011;5769;47.998;7.788;2022-11-15T07:08:02;279.03;;;44.20;;
11425;SDS011;5769;47.998;7.788;2022-11-15T07:10:30;278.67;;;43.90;;
11425;SDS011;5769;47.998;7.788;2022-11-15T07:12:57;278.00;;;44.20;;
11425;SDS011;5769;47.998;7.788;2022-11-15T07:15:24;275.80;;;43.70;;
11425;SDS011;5769;47.998;7.788;2022-11-15T07:17:51;276.07;;;43.97;;
11425;SDS011;5769;47.998;7.788;2022-11-15T07:20:18;279.60;;;44.13;;
11425;SDS011;5769;47.998;7.788;2022-11-15T07:22:45;277.17;;;43.93;;
11425;SDS011;5769;47.998;7.788;2022-11-15T07:25:12;277.90;;;44.03;;
11425;SDS011;5769;47.998;7.788;2022-11-15T07:27:40;277.33;;;44.03;;
11425;SDS011;5769;47.998;7.788;2022-11-15T07:30:07;278.60;;;44.13;;
11425;SDS011;5769;47.998;7.788;2022-11-15T07:32:35;278.40;;;44.20;;
11425;SDS011;5769;47.998;7.788;2022-11-15T07:35:01;278.03;;;44.20;;
11425;SDS011;5769;47.998;7.788;2022-11-15T07:37:28;277.93;;;44.10;;
11425;SDS011;5769;47.998;7.788;2022-11-15T07:39:55;278.53;;;44.03;;
11425;SDS011;5769;47.998;7.788;2022-11-15T07:42:21;280.23;;;44.07;;
11425;SDS011;5769;47.998;7.788;2022-11-15T07:45:08;283.20;;;44.20;;
11425;SDS011;5769;47.998;7.788;2022-11-15T07:47:35;284.10;;;44.30;;
11425;SDS011;5769;47.998;7.788;2022-11-15T07:50:01;281.53;;;44.17;;
11425;SDS011;5769;47.998;7.788;2022-11-15T07:52:28;282.17;;;44.10;;
11425;SDS011;5769;47.998;7.788;2022-11-15T07:54:55;282.33;;;44.23;;
11425;SDS011;5769;47.998;7.788;2022-11-15T07:57:22;283.23;;;44.10;;
11425;SDS011;5769;47.998;7.788;2022-11-15T07:59:48;281.53;;;44.27;;
11425;SDS011;5769;47.998;7.788;2022-11-15T08:02:16;285.30;;;44.43;;
11425;SDS011;5769;47.998;7.788;2022-11-15T08:04:43;281.17;;;44.20;;
11425;SDS011;5769;47.998;7.788;2022-11-15T08:07:10;281.67;;;44.30;;
11425;SDS011;5769;47.998;7.788;2022-11-15T08:09:36;281.63;;;44.23;;
11425;SDS011;5769;47.998;7.788;2022-11-15T08:12:03;281.10;;;43.93;;
11425;SDS011;5769;47.998;7.788;2022-11-15T08:14:30;281.13;;;43.97;;
11425;SDS011;5769;47.998;7.788;2022-11-15T08:16:57;279.77;;;43.83;;
11425;SDS011;5769;47.998;7.788;2022-11-15T08:19:25;280.60;;;44.03;;
11425;SDS011;5769;47.998;7.788;2022-11-15T08:21:52;280.50;;;44.00;;
11425;SDS011;5769;47.998;7.788;2022-11-15T08:24:19;281.33;;;44.17;;
11425;SDS011;5769;47.998;7.788;2022-11-15T08:26:46;281.63;;;44.27;;
11425;SDS011;5769;47.998;7.788;2022-11-15T08:29:12;284.00;;;44.23;;
11425;SDS011;5769;47.998;7.788;2022-11-15T08:31:39;283.67;;;44.30;;
11425;SDS011;5769;47.998;7.788;2022-11-15T08:34:06;282.43;;;44.13;;
11425;SDS011;5769;47.998;7.788;2022-11-15T08:36:34;280.90;;;44.00;;
11425;SDS011;5769;47.998;7.788;2022-11-15T08:39:01;282.03;;;43.90;;
11425;SDS011;5769;47.998;7.788;2022-11-15T08:41:30;283.17;;;44.33;;
11425;SDS011;5769;47.998;7.788;2022-11-15T08:43:58;281.83;;;44.20;;
11425;SDS011;5769;47.998;7.788;2022-11-15T08:46:27;282.43;;;44.20;;
11425;SDS011;5769;47.998;7.788;2022-11-15T08:48:54;282.47;;;43.97;;
11425;SDS011;5769;47.998;7.788;2022-11-15T08:51:20;283.80;;;44.37;;
11425;SDS011;5769;47.998;7.788;2022-11-15T08:53:48;281.77;;;43.97;;
11425;SDS011;5769;47.998;7.788;2022-11-15T08:56:15;283.80;;;44.40;;
11425;SDS011;5769;47.998;7.788;2022-11-15T08:58:42;282.97;;;44.40;;
11425;SDS011;5769;47.998;7.788;2022-11-15T09:01:14;283.10;;;44.43;;
11425;SDS011;5769;47.998;7.788;2022-11-15T09:03:42;284.47;;;44.10;;
11425;SDS011;5769;47.998;7.788;2022-11-15T09:06:09;287.37;;;44.50;;
11425;SDS011;5769;47.998;7.788;2022-11-15T09:08:36;284.30;;;44.37;;
11425;SDS011;5769;47.998;7.788;2022-11-15T09:11:04;283.27;;;43.97;;
11425;SDS011;5769;47.998;7.788;2022-11-15T09:13:31;284.30;;;44.23;;
11425;SDS011;5769;47.998;7.788;2022-11-15T09:15:58;282.80;;;44.17;;
11425;SDS011;5769;47.998;7.788;2022-11-15T09:18:25;282.70;;;44.20;;
11425;SDS011;5769;47.998;7.788;2022-11-15T09:20:54;282.07;;;44.10;;
11425;SDS011;5769;47.998;7.788;2022-11-15T09:23:22;281.87;;;44.17;;
11425;SDS011;5769;47.998;7.788;2022-11-15T09:25:49;283.80;;;44.27;;
11425;SDS011;5769;47.998;7.788;2022-11-15T09:28:17;286.57;;;44.17;;
11425;SDS011;5769;47.998;7.788;2022-11-15T09:30:44;287.73;;;44.33;;
11425;SDS011;5769;47.998;7.788;2022-11-15T09:33:11;287.37;;;44.33;;
11425;SDS011;5769;47.998;7.788;2022-11-15T09:35:38;284.63;;;44.20;;
11425;SDS011;5769;47.998;7.788;2022-11-15T09:38:05;283.63;;;44.30;;
11425;SDS011;5769;47.998;7.788;2022-11-15T09:40:32;288.60;;;44.70;;
11425;SDS011;5769;47.998;7.788;2022-11-15T09:45:57;288.87;;;44.33;;
11425;SDS011;5769;47.998;7.788;2022-11-15T09:48:38;286.80;;;44.20;;
11425;SDS011;5769;47.998;7.788;2022-11-15T09:51:18;287.10;;;44.00;;
11425;SDS011;5769;47.998;7.788;2022-11-15T09:53:53;288.13;;;44.03;;
11425;SDS011;5769;47.998;7.788;2022-11-15T09:56:26;286.17;;;44.23;;
11425;SDS011;5769;47.998;7.788;2022-11-15T09:58:58;286.10;;;43.93;;
11425;SDS011;5769;47.998;7.788;2022-11-15T10:01:35;284.90;;;44.03;;
11425;SDS011;5769;47.998;7.788;2022-11-15T10:04:07;284.57;;;44.13;;
11425;SDS011;5769;47.998;7.788;2022-11-15T10:06:36;288.07;;;44.33;;
11425;SDS011;5769;47.998;7.788;2022-11-15T10:09:11;288.27;;;44.70;;
11425;SDS011;5769;47.998;7.788;2022-11-15T10:11:42;286.33;;;44.10;;
11425;SDS011;5769;47.998;7.788;2022-11-15T10:14:12;284.93;;;44.27;;
11425;SDS011;5769;47.998;7.788;2022-11-15T10:16:50;287.27;;;44.77;;
11425;SDS011;5769;47.998;7.788;2022-11-15T10:19:35;283.43;;;44.03;;
11425;SDS011;5769;47.998;7.788;2022-11-15T10:22:12;284.30;;;44.37;;
11425;SDS011;5769;47.998;7.788;2022-11-15T10:24:47;284.47;;;44.20;;
11425;SDS011;5769;47.998;7.788;2022-11-15T10:27:17;283.60;;;44.20;;
11425;SDS011;5769;47.998;7.788;2022-11-15T10:29:47;284.70;;;44.40;;
11425;SDS011;5769;47.998;7.788;2022-11-15T10:32:17;284.60;;;44.33;;
11425;SDS011;5769;47.998;7.788;2022-11-15T10:34:45;283.83;;;44.00;;
11425;SDS011;5769;47.998;7.788;2022-11-15T10:37:12;282.77;;;44.10;;
11425;SDS011;5769;47.998;7.788;2022-11-15T10:39:39;283.07;;;43.90;;
11425;SDS011;5769;47.998;7.788;2022-11-15T10:42:16;285.10;;;44.07;;
11425;SDS011;5769;47.998;7.788;2022-11-15T10:44:44;285.90;;;44.33;;
11425;SDS011;5769;47.998;7.788;2022-11-15T10:49:59;288.20;;;44.03;;
11425;SDS011;5769;47.998;7.788;2022-11-15T10:52:27;284.90;;;44.00;;
11425;SDS011;5769;47.998;7.788;2022-11-15T10:54:56;286.83;;;44.50;;
11425;SDS011;5769;47.998;7.788;2022-11-15T10:57:28;285.30;;;44.07;;
11425;SDS011;5769;47.998;7.788;2022-11-15T10:59:59;286.17;;;44.20;;
11425;SDS011;5769;47.998;7.788;2022-11-15T11:02:29;286.00;;;43.97;;
11425;SDS011;5769;47.998;7.788;2022-11-15T11:04:58;288.07;;;44.37;;
11425;SDS011;5769;47.998;7.788;2022-11-15T11:07:26;288.53;;;44.30;;
11425;SDS011;5769;47.998;7.788;2022-11-15T11:09:57;285.47;;;44.00;;
11425;SDS011;5769;47.998;7.788;2022-11-15T11:12:29;287.03;;;44.33;;
11425;SDS011;5769;47.998;7.788;2022-11-15T11:14:58;285.67;;;43.97;;
11425;SDS011;5769;47.998;7.788;2022-11-15T11:17:31;287.80;;;44.33;;
11425;SDS011;5769;47.998;7.788;2022-11-15T11:20:07;288.20;;;44.47;;
11425;SDS011;5769;47.998;7.788;2022-11-15T11:22:56;285.33;;;44.03;;
11425;SDS011;5769;47.998;7.788;2022-11-15T11:25:30;286.30;;;44.23;;
11425;SDS011;5769;47.998;7.788;2022-11-15T11:28:05;287.67;;;43.90;;
11425;SDS011;5769;47.998;7.788;2022-11-15T11:30:56;288.67;;;44.00;;
11425;SDS011;5769;47.998;7.788;2022-11-15T11:33:30;291.53;;;44.10;;
11425;SDS011;5769;47.998;7.788;2022-11-15T11:36:02;288.13;;;44.43;;
11425;SDS011;5769;47.998;7.788;2022-11-15T11:38:44;287.40;;;44.23;;
11425;SDS011;5769;47.998;7.788;2022-11-15T11:41:27;287.80;;;44.10;;
11425;SDS011;5769;47.998;7.788;2022-11-15T11:44:07;286.17;;;44.03;;
11425;SDS011;5769;47.998;7.788;2022-11-15T11:46:47;288.27;;;44.33;;
11425;SDS011;5769;47.998;7.788;2022-11-15T11:49:19;287.77;;;44.23;;
11425;SDS011;5769;47.998;7.788;2022-11-15T11:51:51;288.60;;;44.27;;
11425;SDS011;5769;47.998;7.788;2022-11-15T11:54:22;290.10;;;44.37;;
11425;SDS011;5769;47.998;7.788;2022-11-15T11:56:52;288.00;;;44.23;;
11425;SDS011;5769;47.998;7.788;2022-11-15T11:59:25;287.60;;;44.20;;
11425;SDS011;5769;47.998;7.788;2022-11-15T12:02:09;285.80;;;44.10;;
11425;SDS011;5769;47.998;7.788;2022-11-15T12:04:42;287.10;;;43.87;;
11425;SDS011;5769;47.998;7.788;2022-11-15T12:07:13;285.87;;;44.07;;
11425;SDS011;5769;47.998;7.788;2022-11-15T12:09:47;285.87;;;43.93;;
11425;SDS011;5769;47.998;7.788;2022-11-15T12:12:21;285.37;;;44.00;;
11425;SDS011;5769;47.998;7.788;2022-11-15T12:14:54;285.23;;;44.23;;
11425;SDS011;5769;47.998;7.788;2022-11-15T12:17:26;286.00;;;44.30;;
11425;SDS011;5769;47.998;7.788;2022-11-15T12:19:57;287.90;;;44.40;;
11425;SDS011;5769;47.998;7.788;2022-11-15T12:22:27;285.53;;;44.30;;
11425;SDS011;5769;47.998;7.788;2022-11-15T12:25:02;285.40;;;44.27;;
11425;SDS011;5769;47.998;7.788;2022-11-15T12:27:33;285.17;;;44.23;;
11425;SDS011;5769;47.998;7.788;2022-11-15T12:30:12;283.90;;;44.17;;
11425;SDS011;5769;47.998;7.788;2022-11-15T12:32:50;285.47;;;44.00;;
11425;SDS011;5769;47.998;7.788;2022-11-15T12:35:27;284.43;;;44.13;;
11425;SDS011;5769;47.998;7.788;2022-11-15T12:38:03;284.53;;;43.93;;
11425;SDS011;5769;47.998;7.788;2022-11-15T12:40:35;286.60;;;44.33;;
11425;SDS011;5769;47.998;7.788;2022-11-15T12:46:10;286.10;;;44.20;;
11425;SDS011;5769;47.998;7.788;2022-11-15T12:48:47;285.00;;;44.27;;
11425;SDS011;5769;47.998;7.788;2022-11-15T12:51:17;285.67;;;44.37;;
11425;SDS011;5769;47.998;7.788;2022-11-15T12:53:46;285.20;;;44.20;;
11425;SDS011;5769;47.998;7.788;2022-11-15T12:56:22;285.30;;;44.33;;
11425;SDS011;5769;47.998;7.788;2022-11-15T12:58:54;284.40;;;44.23;;
11425;SDS011;5769;47.998;7.788;2022-11-15T13:04:28;285.07;;;44.10;;
11425;SDS011;5769;47.998;7.788;2022-11-15T13:06:58;286.20;;;44.27;;
11425;SDS011;5769;47.998;7.788;2022-11-15T13:09:50;285.77;;;44.23;;
11425;SDS011;5769;47.998;7.788;2022-11-15T13:18:25;289.93;;;44.40;;
11425;SDS011;5769;47.998;7.788;2022-11-15T13:21:03;287.57;;;44.37;;
11425;SDS011;5769;47.998;7.788;2022-11-15T13:24:01;288.40;;;44.17;;
11425;SDS011;5769;47.998;7.788;2022-11-15T13:26:28;287.80;;;44.20;;
11425;SDS011;5769;47.998;7.788;2022-11-15T13:28:55;286.57;;;44.03;;
11425;SDS011;5769;47.998;7.788;2022-11-15T13:31:26;287.03;;;44.47;;
11425;SDS011;5769;47.998;7.788;2022-11-15T13:33:56;286.13;;;44.03;;
11425;SDS011;5769;47.998;7.788;2022-11-15T13:36:27;286.43;;;44.20;;
11425;SDS011;5769;47.998;7.788;2022-11-15T13:38:56;287.13;;;44.40;;
11425;SDS011;5769;47.998;7.788;2022-11-15T13:41:25;288.40;;;44.17;;
11425;SDS011;5769;47.998;7.788;2022-11-15T13:43:54;288.03;;;44.27;;
11425;SDS011;5769;47.998;7.788;2022-11-15T13:46:22;287.10;;;44.00;;
11425;SDS011;5769;47.998;7.788;2022-11-15T13:48:54;286.03;;;44.23;;
11425;SDS011;5769;47.998;7.788;2022-11-15T13:51:27;284.43;;;44.00;;
11425;SDS011;5769;47.998;7.788;2022-11-15T13:54:01;286.07;;;44.37;;
11425;SDS011;5769;47.998;7.788;2022-11-15T13:56:31;285.23;;;44.20;;
11425;SDS011;5769;47.998;7.788;2022-11-15T13:58:59;288.43;;;44.43;;
11425;SDS011;5769;47.998;7.788;2022-11-15T14:01:27;285.63;;;44.10;;
11425;SDS011;5769;47.998;7.788;2022-11-15T14:03:58;285.73;;;44.20;;
11425;SDS011;5769;47.998;7.788;2022-11-15T14:06:28;287.00;;;44.47;;
11425;SDS011;5769;47.998;7.788;2022-11-15T14:09:00;288.30;;;44.30;;
11425;SDS011;5769;47.998;7.788;2022-11-15T14:11:51;288.43;;;44.07;;
11425;SDS011;5769;47.998;7.788;2022-11-15T14:14:20;285.97;;;44.20;;
11425;SDS011;5769;47.998;7.788;2022-11-15T14:16:49;282.63;;;43.70;;
11425;SDS011;5769;47.998;7.788;2022-11-15T14:19:33;286.53;;;44.20;;
11425;SDS011;5769;47.998;7.788;2022-11-15T14:22:10;286.10;;;44.00;;
11425;SDS011;5769;47.998;7.788;2022-11-15T14:24:38;288.77;;;44.53;;
11425;SDS011;5769;47.998;7.788;2022-11-15T14:27:19;287.87;;;44.30;;
11425;SDS011;5769;47.998;7.788;2022-11-15T14:29:47;285.77;;;44.20;;
11425;SDS011;5769;47.998;7.788;2022-11-15T14:32:15;286.97;;;44.17;;
11425;SDS011;5769;47.998;7.788;2022-11-15T14:34:44;287.90;;;44.10;;
11425;SDS011;5769;47.998;7.788;2022-11-15T14:37:22;286.17;;;44.33;;
11425;SDS011;5769;47.998;7.788;2022-11-15T14:39:50;287.07;;;44.30;;
11425;SDS011;5769;47.998;7.788;2022-11-15T14:42:17;286.83;;;44.40;;
11425;SDS011;5769;47.998;7.788;2022-11-15T14:44:45;285.50;;;43.97;;
11425;SDS011;5769;47.998;7.788;2022-11-15T14:47:12;286.93;;;44.13;;
11425;SDS011;5769;47.998;7.788;2022-11-15T14:49:39;286.73;;;44.27;;
11425;SDS011;5769;47.998;7.788;2022-11-15T14:52:23;285.27;;;44.10;;
11425;SDS011;5769;47.998;7.788;2022-11-15T14:54:52;287.67;;;44.40;;
11425;SDS011;5769;47.998;7.788;2022-11-15T14:57:19;287.33;;;44.20;;
11425;SDS011;5769;47.998;7.788;2022-11-15T14:59:46;287.27;;;44.40;;